Time;durP1;ratioP1;P1;durP2;ratioP2;P2;SDS_P1;SDS_P2;PMS_P1;PMS_P2;Temp;Humidity;BMP_temperature;BMP_pressure;BME280_temperature;BME280_humidity;BME280_pressure;Samples;Min_cycle;Max_cycle;Signal;HPM_P1;HPM_P2
2021/09/18 00:01:01;;;;;;;;;;;;;;;28.98;45.08;100156.75;5136180;28;882;-37
2021/09/18 00:03:26;;;;;;;;;;;;;;;29.03;44.76;100151.53;5118169;28;775;-37
2021/09/18 00:05:51;;;;;;;;;;;;;;;29.15;44.44;100129.22;5135679;28;854;-40
2021/09/18 00:08:16;;;;;;;;;;;;;;;29.15;44.36;100126.50;5135726;28;946;-36
2021/09/18 00:10:42;;;;;;;;;;;;;;;29.13;44.58;100115.88;5136337;28;893;-40
2021/09/18 00:13:07;;;;;;;;;;;;;;;29.08;44.79;100112.97;5135949;28;802;-36
2021/09/18 00:15:32;;;;;;;;;;;;;;;29.10;44.58;100119.03;5135791;28;773;-36
2021/09/18 00:18:00;;;;;;;;;;;;;;;29.01;44.76;100131.13;5135860;28;1901;-38
2021/09/18 00:20:26;;;;;;;;;;;;;;;29.03;44.97;100131.75;5135769;28;862;-36
2021/09/18 00:22:51;;;;;;;;;;;;;;;29.08;44.90;100137.34;5134634;28;1597;-40
2021/09/18 00:25:16;;;;;;;;;;;;;;;29.00;44.96;100141.13;5136138;28;862;-37
2021/09/18 00:27:41;;;;;;;;;;;;;;;29.21;44.61;100131.09;5135198;28;758;-35
2021/09/18 00:30:07;;;;;;;;;;;;;;;29.03;44.71;100137.19;5138390;27;815;-36
2021/09/18 00:32:32;;;;;;;;;;;;;;;29.09;44.77;100133.63;5140169;27;787;-38
2021/09/18 00:34:57;;;;;;;;;;;;;;;29.18;44.54;100131.50;5139499;27;817;-35
2021/09/18 00:37:23;;;;;;;;;;;;;;;29.13;44.58;100129.44;5139079;27;1901;-38
2021/09/18 00:39:48;;;;;;;;;;;;;;;29.11;44.59;100123.41;5158553;27;846;-36
2021/09/18 00:42:13;;;;;;;;;;;;;;;29.07;44.92;100122.16;5159998;27;763;-35
2021/09/18 00:44:39;;;;;;;;;;;;;;;29.09;45.08;100133.63;5160394;27;834;-39
2021/09/18 00:47:04;;;;;;;;;;;;;;;29.09;44.98;100130.91;5160209;27;747;-37
2021/09/18 00:49:29;;;;;;;;;;;;;;;29.07;45.23;100124.88;5159476;27;1182;-37
2021/09/18 00:51:54;;;;;;;;;;;;;;;29.08;45.00;100115.69;5150281;27;1036;-37
2021/09/18 00:54:20;;;;;;;;;;;;;;;29.02;45.35;100121.94;5139133;27;818;-37
2021/09/18 00:56:45;;;;;;;;;;;;;;;29.00;45.42;100124.03;5138572;27;1966;-37
2021/09/18 00:59:13;;;;;;;;;;;;;;;29.05;45.14;100118.81;5120665;27;755;-39
2021/09/18 01:01:41;;;;;;;;;;;;;;;29.14;44.96;100114.00;5139269;27;814;-36
2021/09/18 01:04:07;;;;;;;;;;;;;;;29.07;45.01;100111.31;5138816;27;795;-37
2021/09/18 01:06:32;;;;;;;;;;;;;;;29.09;44.79;100106.53;5119698;27;1242;-37
2021/09/18 01:09:00;;;;;;;;;;;;;;;29.04;44.82;100114.47;5138947;27;728;-37
2021/09/18 01:11:26;;;;;;;;;;;;;;;29.11;44.79;100109.88;5138611;27;829;-37
2021/09/18 01:13:51;;;;;;;;;;;;;;;29.14;44.72;100114.84;5138834;27;986;-38
2021/09/18 01:16:18;;;;;;;;;;;;;;;29.14;44.78;100111.31;5138811;27;653;-37
2021/09/18 01:18:43;;;;;;;;;;;;;;;29.09;44.67;100106.53;5137855;27;1979;-36
2021/09/18 01:21:09;;;;;;;;;;;;;;;29.06;44.76;100102.34;5136088;27;1604;-35
2021/09/18 01:23:34;;;;;;;;;;;;;;;29.06;44.80;100109.66;5118348;28;817;-37
2021/09/18 01:25:59;;;;;;;;;;;;;;;29.11;44.78;100101.75;5117572;28;888;-37
2021/09/18 01:28:25;;;;;;;;;;;;;;;29.20;44.46;100102.31;5118409;28;800;-40
2021/09/18 01:30:51;;;;;;;;;;;;;;;29.28;44.32;100106.69;5117751;28;957;-35
2021/09/18 01:33:16;;;;;;;;;;;;;;;29.03;44.77;100100.06;5117736;28;764;-36
2021/09/18 01:35:41;;;;;;;;;;;;;;;29.09;44.42;100104.63;5118251;28;886;-39
2021/09/18 01:38:07;;;;;;;;;;;;;;;29.17;44.34;100102.75;5126534;27;1974;-37
2021/09/18 01:40:41;;;;;;;;;;;;;;;29.08;44.55;100115.69;5157520;27;838;-39
2021/09/18 01:43:06;;;;;;;;;;;;;;;29.08;44.25;100111.09;5159208;27;723;-36
2021/09/18 01:45:32;;;;;;;;;;;;;;;29.05;43.96;100108.00;5158663;27;787;-36
2021/09/18 01:47:58;;;;;;;;;;;;;;;29.09;44.11;100123.59;5158537;27;1066;-36
2021/09/18 01:50:24;;;;;;;;;;;;;;;29.01;44.17;100113.00;5158889;27;991;-36
2021/09/18 01:52:51;;;;;;;;;;;;;;;29.03;43.75;100104.69;5140981;27;1024;-38
2021/09/18 01:55:16;;;;;;;;;;;;;;;29.08;43.56;100105.69;5136870;27;1136;-37
2021/09/18 01:57:48;;;;;;;;;;;;;;;29.03;43.73;100102.78;5137399;27;1963;-41
2021/09/18 02:00:14;;;;;;;;;;;;;;;28.98;43.96;100110.72;5137739;27;827;-37
2021/09/18 02:02:39;;;;;;;;;;;;;;;29.17;43.43;100103.59;5137701;27;910;-37
2021/09/18 02:05:05;;;;;;;;;;;;;;;29.08;43.74;100100.28;5138269;27;778;-37
2021/09/18 02:07:30;;;;;;;;;;;;;;;29.04;43.50;100103.63;5137396;27;1139;-36
2021/09/18 02:09:56;;;;;;;;;;;;;;;29.04;43.70;100109.88;5137425;27;767;-36
2021/09/18 02:12:21;;;;;;;;;;;;;;;28.95;43.74;100121.94;5137464;27;847;-39
2021/09/18 02:14:46;;;;;;;;;;;;;;;28.93;43.73;100121.31;5137495;27;847;-37
2021/09/18 02:17:11;;;;;;;;;;;;;;;28.85;43.87;100119.66;5137909;27;1964;-39
2021/09/18 02:19:37;;;;;;;;;;;;;;;29.03;43.57;100124.44;5137555;27;898;-39
2021/09/18 02:22:02;;;;;;;;;;;;;;;29.03;43.37;100123.63;5136070;27;1621;-39
2021/09/18 02:24:27;;;;;;;;;;;;;;;29.02;43.39;100120.09;5137179;27;879;-39
2021/09/18 02:26:53;;;;;;;;;;;;;;;28.95;43.68;100124.63;5137540;27;771;-37
2021/09/18 02:29:18;;;;;;;;;;;;;;;28.93;43.67;100127.56;5137408;27;1510;-37
2021/09/18 02:31:43;;;;;;;;;;;;;;;28.95;43.37;100135.47;5136968;27;806;-38
2021/09/18 02:34:08;;;;;;;;;;;;;;;29.00;43.35;100130.28;5137498;27;775;-37
2021/09/18 02:36:34;;;;;;;;;;;;;;;28.91;43.59;100121.50;5136737;27;1914;-40
2021/09/18 02:38:59;;;;;;;;;;;;;;;28.97;43.11;100130.72;5149153;27;1142;-37
2021/09/18 02:41:24;;;;;;;;;;;;;;;29.05;42.79;100133.19;5157802;27;770;-39
2021/09/18 02:43:49;;;;;;;;;;;;;;;28.94;42.85;100131.94;5157793;27;751;-37
2021/09/18 02:46:15;;;;;;;;;;;;;;;28.95;42.97;100139.03;5158481;27;807;-39
2021/09/18 02:48:40;;;;;;;;;;;;;;;28.92;43.13;100134.03;5157439;27;1186;-37
2021/09/18 02:51:05;;;;;;;;;;;;;;;28.96;42.97;100129.84;5155063;27;1036;-37
2021/09/18 02:53:34;;;;;;;;;;;;;;;28.93;43.12;100119.44;5136623;27;751;-37
2021/09/18 02:56:02;;;;;;;;;;;;;;;28.93;43.14;100121.31;5136767;27;799;-40
2021/09/18 02:58:27;;;;;;;;;;;;;;;28.94;43.31;100113.00;5137073;27;1977;-37
2021/09/18 03:00:52;;;;;;;;;;;;;;;28.85;43.25;100109.66;5137727;27;826;-39
2021/09/18 03:03:17;;;;;;;;;;;;;;;28.79;43.81;100109.69;5136054;27;751;-37
2021/09/18 03:05:43;;;;;;;;;;;;;;;28.85;43.56;100108.84;5137008;27;763;-39
2021/09/18 03:08:08;;;;;;;;;;;;;;;28.85;43.46;100106.13;5136254;27;957;-36
2021/09/18 03:10:33;;;;;;;;;;;;;;;28.78;43.70;100110.72;5136426;27;771;-36
2021/09/18 03:12:58;;;;;;;;;;;;;;;28.80;44.03;100111.34;5136697;27;858;-36
2021/09/18 03:15:24;;;;;;;;;;;;;;;28.71;44.12;100103.44;5136672;27;751;-41
2021/09/18 03:17:49;;;;;;;;;;;;;;;28.82;43.98;100101.97;5136433;27;1968;-40
2021/09/18 03:20:14;;;;;;;;;;;;;;;28.81;43.78;100102.19;5136550;27;818;-38
2021/09/18 03:22:40;;;;;;;;;;;;;;;28.78;43.97;100105.31;5135370;27;1636;-36
2021/09/18 03:25:05;;;;;;;;;;;;;;;28.82;43.96;100111.97;5136283;27;820;-38
2021/09/18 03:27:30;;;;;;;;;;;;;;;28.64;44.46;100094.50;5136364;27;846;-36
2021/09/18 03:29:56;;;;;;;;;;;;;;;28.22;45.68;100098.22;5136340;27;814;-37
2021/09/18 03:32:21;;;;;;;;;;;;;;;27.81;46.98;100097.28;5136464;28;732;-34
2021/09/18 03:34:46;;;;;;;;;;;;;;;27.83;46.65;100099.78;5136391;28;842;-35
2021/09/18 03:37:11;;;;;;;;;;;;;;;27.79;47.01;100114.75;5136201;28;1905;-35
2021/09/18 03:39:37;;;;;;;;;;;;;;;27.81;47.00;100108.09;5153940;27;961;-37
2021/09/18 03:42:02;;;;;;;;;;;;;;;27.77;46.96;100112.25;5156937;27;759;-39
2021/09/18 03:44:27;;;;;;;;;;;;;;;27.55;47.65;100103.41;5157033;27;735;-37
2021/09/18 03:46:53;;;;;;;;;;;;;;;27.04;49.10;100109.00;5157013;27;846;-37
2021/09/18 03:49:18;;;;;;;;;;;;;;;27.23;48.45;100104.72;5156836;27;1470;-36
2021/09/18 03:51:43;;;;;;;;;;;;;;;27.16;48.77;100106.53;5148912;27;1084;-35
2021/09/18 03:54:09;;;;;;;;;;;;;;;27.20;48.87;100115.94;5135800;28;842;-37
2021/09/18 03:56:34;;;;;;;;;;;;;;;27.09;48.54;100120.00;5136318;28;1913;-36
2021/09/18 03:58:59;;;;;;;;;;;;;;;27.52;47.72;100118.16;5145945;27;1332;-40
2021/09/18 04:01:25;;;;;;;;;;;;;;;27.51;47.66;100122.72;5136099;27;882;-33
2021/09/18 04:03:50;;;;;;;;;;;;;;;27.34;47.35;100116.00;5157542;27;791;-35
2021/09/18 04:06:15;;;;;;;;;;;;;;;27.52;46.36;100115.47;5156974;27;1041;-40
2021/09/18 04:08:41;;;;;;;;;;;;;;;27.55;46.44;100117.75;5142022;27;830;-35
2021/09/18 04:11:06;;;;;;;;;;;;;;;27.70;46.08;100114.94;5158294;27;1367;-41
2021/09/18 04:13:31;;;;;;;;;;;;;;;27.49;46.94;100113.16;5153124;27;854;-39
2021/09/18 04:15:56;;;;;;;;;;;;;;;27.36;47.51;100112.06;5139740;27;826;-35
2021/09/18 04:18:22;;;;;;;;;;;;;;;27.07;48.60;100115.84;5155595;27;1913;-35
2021/09/18 04:20:47;;;;;;;;;;;;;;;27.16;48.17;100108.44;5158840;27;1545;-35
2021/09/18 04:23:12;;;;;;;;;;;;;;;27.09;48.38;100101.09;5139025;27;985;-35
2021/09/18 04:25:38;;;;;;;;;;;;;;;27.20;48.43;100107.81;5139398;27;746;-36
2021/09/18 04:28:03;;;;;;;;;;;;;;;27.14;48.66;100104.03;5139822;27;819;-34
2021/09/18 04:30:28;;;;;;;;;;;;;;;26.94;48.82;100108.47;5139600;27;742;-36
2021/09/18 04:32:53;;;;;;;;;;;;;;;21.93;54.67;100112.25;5139247;27;799;-36
2021/09/18 04:35:22;;;;;;;;;;;;;;;19.72;55.09;100111.09;5139572;27;743;-34
2021/09/18 04:37:47;;;;;;;;;;;;;;;18.64;55.22;100110.41;5140542;27;1901;-35
2021/09/18 04:40:12;;;;;;;;;;;;;;;17.78;55.85;100107.38;5160236;27;749;-35
2021/09/18 04:42:43;;;;;;;;;;;;;;;17.47;56.65;100109.09;5160325;27;926;-35
2021/09/18 04:45:08;;;;;;;;;;;;;;;17.09;57.92;100100.81;5159693;27;749;-35
2021/09/18 04:47:33;;;;;;;;;;;;;;;17.27;56.84;100091.38;5159828;27;735;-36
2021/09/18 04:49:59;;;;;;;;;;;;;;;17.40;57.63;100094.63;5160291;27;1098;-35
2021/09/18 04:52:24;;;;;;;;;;;;;;;17.77;58.35;100103.03;5145753;27;1012;-34
2021/09/18 04:54:49;;;;;;;;;;;;;;;17.34;59.24;99948.97;5139247;27;656;-34
2021/09/18 04:57:15;;;;;;;;;;;;;;;18.47;60.69;100100.31;5138820;27;1976;-38
2021/09/18 04:59:40;;;;;;;;;;;;;;;18.50;62.00;100104.53;5138851;27;771;-36
2021/09/18 05:02:05;;;;;;;;;;;;;;;20.12;58.06;100104.53;5139136;27;838;-35
2021/09/18 05:04:30;;;;;;;;;;;;;;;20.66;57.80;100100.19;5138966;27;795;-37
2021/09/18 05:06:56;;;;;;;;;;;;;;;21.29;58.92;100111.63;5137871;27;969;-38
2021/09/18 05:09:21;;;;;;;;;;;;;;;23.30;56.42;100117.25;5139094;27;742;-37
2021/09/18 05:11:46;;;;;;;;;;;;;;;24.16;53.61;100118.38;5138306;27;522;-37
2021/09/18 05:14:12;;;;;;;;;;;;;;;24.79;52.06;100120.09;5138915;27;743;-36
2021/09/18 05:16:37;;;;;;;;;;;;;;;25.16;51.05;100131.84;5137084;27;1909;-33
2021/09/18 05:19:02;;;;;;;;;;;;;;;25.29;51.40;100135.78;5138897;27;867;-38
2021/09/18 05:21:27;;;;;;;;;;;;;;;25.55;51.18;100124.53;5137229;27;1597;-35
2021/09/18 05:23:53;;;;;;;;;;;;;;;23.95;50.04;100131.44;5138572;27;779;-39
2021/09/18 05:26:18;;;;;;;;;;;;;;;22.93;52.65;100128.41;5137777;27;887;-35
2021/09/18 05:28:43;;;;;;;;;;;;;;;22.42;52.89;100128.56;5137921;27;779;-35
2021/09/18 05:31:09;;;;;;;;;;;;;;;22.08;53.51;100128.53;5137861;27;774;-39
2021/09/18 05:33:34;;;;;;;;;;;;;;;22.03;53.69;100122.81;5138435;27;834;-36
2021/09/18 05:35:59;;;;;;;;;;;;;;;22.05;53.64;100119.97;5129928;27;867;-36
2021/09/18 05:38:24;;;;;;;;;;;;;;;21.98;54.25;100114.44;5138884;27;1909;-38
2021/09/18 05:40:50;;;;;;;;;;;;;;;22.59;56.32;100107.94;5158716;27;751;-42
2021/09/18 05:43:15;;;;;;;;;;;;;;;24.32;55.66;100106.72;5148282;27;866;-39
2021/09/18 05:45:41;;;;;;;;;;;;;;;25.15;53.15;100113.22;5137002;27;793;-47
2021/09/18 05:48:06;;;;;;;;;;;;;;;25.48;52.84;100114.66;5136997;27;1106;-33
2021/09/18 05:50:32;;;;;;;;;;;;;;;25.56;52.49;100118.09;5153505;27;1062;-32
2021/09/18 05:52:57;;;;;;;;;;;;;;;25.33;53.69;100123.59;5156691;27;1024;-41
2021/09/18 05:55:22;;;;;;;;;;;;;;;25.47;53.98;100131.84;5157908;27;788;-35
2021/09/18 05:57:48;;;;;;;;;;;;;;;25.31;54.18;100131.88;5158021;27;1960;-37
2021/09/18 06:00:13;;;;;;;;;;;;;;;25.40;54.65;100139.84;5158275;27;1497;-42
2021/09/18 06:02:41;;;;;;;;;;;;;;;24.14;52.68;100142.72;5158558;27;833;-33
2021/09/18 06:05:07;;;;;;;;;;;;;;;23.22;51.82;100132.38;5167331;27;1266;-38
2021/09/18 06:07:32;;;;;;;;;;;;;;;23.08;51.29;100133.91;5155721;27;909;-37
2021/09/18 06:09:57;;;;;;;;;;;;;;;22.74;50.72;100127.75;5155224;27;770;-35
2021/09/18 06:12:23;;;;;;;;;;;;;;;22.42;50.48;100132.06;5158078;27;831;-37
2021/09/18 06:14:48;;;;;;;;;;;;;;;22.33;51.29;100136.59;5157760;27;810;-33
2021/09/18 06:17:14;;;;;;;;;;;;;;;22.46;51.02;100138.78;5175411;27;1963;-37
2021/09/18 06:19:39;;;;;;;;;;;;;;;22.69;50.67;100134.66;5178998;27;783;-39
2021/09/18 06:22:04;;;;;;;;;;;;;;;22.61;50.43;100138.13;5165275;27;1564;-36
2021/09/18 06:24:29;;;;;;;;;;;;;;;22.51;50.47;100136.44;5158487;27;762;-41
2021/09/18 06:26:55;;;;;;;;;;;;;;;22.49;50.14;100132.25;5157880;27;842;-35
2021/09/18 06:29:20;;;;;;;;;;;;;;;22.54;50.46;100129.91;5157224;27;846;-36
2021/09/18 06:31:46;;;;;;;;;;;;;;;22.46;50.31;100128.06;5158252;27;763;-34
2021/09/18 06:34:11;;;;;;;;;;;;;;;22.38;50.68;100136.09;5158068;27;782;-35
2021/09/18 06:36:37;;;;;;;;;;;;;;;22.37;50.86;100137.94;5156944;27;1957;-36
2021/09/18 06:39:02;;;;;;;;;;;;;;;22.37;50.79;100137.94;5158272;27;1185;-35
2021/09/18 06:41:27;;;;;;;;;;;;;;;22.38;50.82;100136.09;5154512;27;914;-36
2021/09/18 06:43:52;;;;;;;;;;;;;;;22.41;50.69;100134.91;5155385;27;819;-33
2021/09/18 06:46:18;;;;;;;;;;;;;;;22.65;51.24;100125.25;5156036;27;790;-39
2021/09/18 06:48:43;;;;;;;;;;;;;;;22.55;50.57;100126.22;5158661;27;1034;-38
2021/09/18 06:51:09;;;;;;;;;;;;;;;22.34;50.75;100122.19;5174500;27;925;-30
2021/09/18 06:53:34;;;;;;;;;;;;;;;22.47;51.13;100118.19;5156307;27;833;-34
2021/09/18 06:55:59;;;;;;;;;;;;;;;22.38;51.41;100117.34;5157808;27;762;-34
2021/09/18 06:58:24;;;;;;;;;;;;;;;22.52;52.74;100126.56;5157591;27;1917;-38
2021/09/18 07:00:50;;;;;;;;;;;;;;;22.57;52.06;100128.75;5157346;27;799;-31
2021/09/18 07:03:19;;;;;;;;;;;;;;;22.62;51.90;100123.75;5157415;27;870;-34
2021/09/18 07:05:44;;;;;;;;;;;;;;;22.78;51.86;100114.84;5156826;27;975;-31
2021/09/18 07:08:10;;;;;;;;;;;;;;;22.95;51.83;100117.50;5157355;27;953;-34
2021/09/18 07:10:35;;;;;;;;;;;;;;;22.86;51.55;100122.88;5156942;27;837;-35
2021/09/18 07:13:01;;;;;;;;;;;;;;;22.78;51.80;100130.94;5156973;27;847;-35
2021/09/18 07:15:26;;;;;;;;;;;;;;;22.67;51.79;100128.59;5157501;27;810;-35
2021/09/18 07:17:51;;;;;;;;;;;;;;;22.42;52.38;100128.56;5157387;27;1925;-31
2021/09/18 07:20:17;;;;;;;;;;;;;;;22.65;52.04;100123.41;5156633;27;719;-35
2021/09/18 07:22:42;;;;;;;;;;;;;;;22.93;52.38;100120.38;5156967;27;1624;-35
2021/09/18 07:25:08;;;;;;;;;;;;;;;22.59;51.59;100127.56;5157249;27;791;-35
2021/09/18 07:27:34;;;;;;;;;;;;;;;22.68;51.92;100116.88;5156925;27;791;-32
2021/09/18 07:29:59;;;;;;;;;;;;;;;22.79;52.51;100121.88;5156597;27;865;-39
2021/09/18 07:32:25;;;;;;;;;;;;;;;22.83;51.54;100120.53;5156693;27;795;-35
2021/09/18 07:34:50;;;;;;;;;;;;;;;22.84;51.66;100122.22;5156161;27;1065;-36
2021/09/18 07:37:15;;;;;;;;;;;;;;;22.82;52.23;100129.59;5144956;27;1905;-33
2021/09/18 07:39:41;;;;;;;;;;;;;;;22.90;52.40;100133.28;5156375;27;813;-31
2021/09/18 07:42:06;;;;;;;;;;;;;;;22.80;52.39;100131.63;5161087;27;862;-36
2021/09/18 07:44:31;;;;;;;;;;;;;;;22.98;52.37;100136.78;5160724;27;803;-41
2021/09/18 07:46:56;;;;;;;;;;;;;;;22.86;52.44;100138.13;5161768;27;827;-40
2021/09/18 07:49:22;;;;;;;;;;;;;;;22.97;51.78;100131.59;5161107;27;1218;-36
2021/09/18 07:51:47;;;;;;;;;;;;;;;23.08;51.54;100128.56;5160233;27;977;-34
2021/09/18 07:54:13;;;;;;;;;;;;;;;23.30;50.48;100122.63;5161142;27;845;-34
2021/09/18 07:56:38;;;;;;;;;;;;;;;23.57;49.85;100124.06;5161134;27;1905;-37
2021/09/18 07:59:03;;;;;;;;;;;;;;;23.79;49.40;100132.34;5161066;27;754;-35
2021/09/18 08:01:30;;;;;;;;;;;;;;;23.81;49.63;100122.28;5160911;27;746;-39
2021/09/18 08:04:01;;;;;;;;;;;;;;;23.94;49.73;100132.44;5163534;27;1489;-36
2021/09/18 08:06:27;;;;;;;;;;;;;;;23.90;49.20;100128.44;5170492;27;1221;-31
2021/09/18 08:08:53;;;;;;;;;;;;;;;24.07;49.20;100131.03;5142361;27;795;-41
2021/09/18 08:11:19;;;;;;;;;;;;;;;23.84;49.31;100132.66;5160825;27;809;-36
2021/09/18 08:13:45;;;;;;;;;;;;;;;24.09;48.18;100124.47;5160562;27;778;-41
2021/09/18 08:16:10;;;;;;;;;;;;;;;24.93;46.53;100131.94;5160847;27;771;-33
2021/09/18 08:18:36;;;;;;;;;;;;;;;24.45;46.42;100131.16;5161227;27;1901;-35
2021/09/18 08:21:01;;;;;;;;;;;;;;;24.30;47.94;100131.09;5159912;27;1461;-33
2021/09/18 08:23:26;;;;;;;;;;;;;;;24.55;47.02;100130.91;5160063;27;1409;-34
2021/09/18 08:25:51;;;;;;;;;;;;;;;24.37;47.28;100135.75;5160460;27;806;-36
2021/09/18 08:28:17;;;;;;;;;;;;;;;24.41;47.16;100128.97;5160468;27;774;-36
2021/09/18 08:30:42;;;;;;;;;;;;;;;24.39;46.88;100131.84;5160492;27;798;-36
2021/09/18 08:33:07;;;;;;;;;;;;;;;24.15;47.68;100125.63;5160327;27;862;-38
2021/09/18 08:35:33;;;;;;;;;;;;;;;24.58;47.03;100135.91;5159770;27;794;-39
2021/09/18 08:37:58;;;;;;;;;;;;;;;24.41;46.89;100137.03;5160258;27;1905;-39
2021/09/18 08:40:24;;;;;;;;;;;;;;;24.01;48.44;100135.25;5160298;27;822;-38
2021/09/18 08:42:49;;;;;;;;;;;;;;;24.06;48.02;100138.25;5159910;27;948;-33
2021/09/18 08:45:14;;;;;;;;;;;;;;;24.09;47.45;100139.75;5141330;27;886;-35
2021/09/18 08:47:41;;;;;;;;;;;;;;;24.46;47.13;100142.72;5160707;27;794;-39
2021/09/18 08:50:07;;;;;;;;;;;;;;;24.18;47.89;100138.72;5159015;27;1050;-40
2021/09/18 08:52:32;;;;;;;;;;;;;;;24.94;46.17;100134.44;5159950;27;961;-32
2021/09/18 08:54:57;;;;;;;;;;;;;;;25.65;44.98;100142.28;5159723;27;794;-41
2021/09/18 08:57:23;;;;;;;;;;;;;;;25.33;45.54;100134.38;5159768;27;1901;-39
2021/09/18 08:59:48;;;;;;;;;;;;;;;25.95;44.28;100131.44;5160050;27;794;-40
2021/09/18 09:02:14;;;;;;;;;;;;;;;25.90;43.75;100126.63;5159897;27;827;-40
2021/09/18 09:04:40;;;;;;;;;;;;;;;25.16;44.95;100125.63;5159204;27;783;-38
2021/09/18 09:07:06;;;;;;;;;;;;;;;25.83;44.06;100119.47;5162606;27;1465;-36
2021/09/18 09:09:50;;;;;;;;;;;;;;;24.95;45.74;100132.59;5159755;27;870;-38
2021/09/18 09:12:34;;;;;;;;;;;;;;;26.25;43.61;100117.00;5159480;27;874;-42
2021/09/18 09:15:00;;;;;;;;;;;;;;;26.58;42.65;100118.34;5140335;27;1276;-36
2021/09/18 09:17:27;;;;;;;;;;;;;;;26.35;43.23;100111.31;5165460;27;1898;-38
2021/09/18 09:19:52;;;;;;;;;;;;;;;26.23;42.43;100117.19;5180340;27;822;-37
2021/09/18 09:22:36;;;;;;;;;;;;;;;26.82;42.45;100110.88;5165333;27;1642;-39
2021/09/18 09:25:02;;;;;;;;;;;;;;;27.48;41.25;100106.91;5159182;27;743;-43
2021/09/18 09:27:27;;;;;;;;;;;;;;;27.40;41.04;100096.28;5140091;27;1496;-43
2021/09/18 09:29:54;;;;;;;;;;;;;;;27.65;39.81;100101.16;5159698;27;818;-41
2021/09/18 09:32:25;;;;;;;;;;;;;;;27.68;39.42;100094.50;5159625;27;838;-42
2021/09/18 09:34:53;;;;;;;;;;;;;;;28.21;38.87;100084.91;5158730;27;863;-44
2021/09/18 09:37:19;;;;;;;;;;;;;;;27.68;37.81;100092.69;5158679;27;1901;-36
2021/09/18 09:39:48;;;;;;;;;;;;;;;25.16;41.83;100096.03;5158974;27;784;-34
2021/09/18 09:42:14;;;;;;;;;;;;;;;25.25;42.30;100077.94;5140086;27;1128;-38
2021/09/18 09:44:39;;;;;;;;;;;;;;;25.42;41.13;100070.50;5159460;27;758;-34
2021/09/18 09:47:04;;;;;;;;;;;;;;;25.50;41.19;100065.00;5158868;27;842;-42
2021/09/18 09:49:42;;;;;;;;;;;;;;;25.60;40.80;100066.56;5158313;27;1262;-35
2021/09/18 09:52:17;;;;;;;;;;;;;;;25.50;40.29;100062.31;5158616;27;977;-36
2021/09/18 09:54:42;;;;;;;;;;;;;;;24.99;41.74;100074.69;5158961;27;838;-35
2021/09/18 09:57:14;;;;;;;;;;;;;;;25.18;42.05;100080.53;5158132;27;1995;-39
2021/09/18 09:59:40;;;;;;;;;;;;;;;25.79;40.27;100065.97;5158890;27;783;-41
2021/09/18 10:02:06;;;;;;;;;;;;;;;25.35;40.42;100069.56;5158423;27;784;-40
2021/09/18 10:04:31;;;;;;;;;;;;;;;24.83;41.76;100060.38;5159048;27;739;-40
2021/09/18 10:06:56;;;;;;;;;;;;;;;25.27;40.63;100074.06;5157580;27;934;-34
2021/09/18 10:09:22;;;;;;;;;;;;;;;25.89;39.96;100067.53;5158612;27;778;-40
2021/09/18 10:11:47;;;;;;;;;;;;;;;26.06;39.35;100076.19;5158299;27;786;-38
2021/09/18 10:14:19;;;;;;;;;;;;;;;25.26;39.97;100071.50;5140125;27;803;-38
2021/09/18 10:16:46;;;;;;;;;;;;;;;24.47;41.65;100079.88;5158039;27;1901;-36
2021/09/18 10:19:11;;;;;;;;;;;;;;;24.23;42.54;100072.84;5158235;27;745;-40
2021/09/18 10:24:21;;;;;;;;;;;;;;;23.81;43.69;100049.75;5142450;27;609;-41
2021/09/18 10:27:06;;;;;;;;;;;;;;;24.12;42.94;100055.25;5157675;27;766;-35
2021/09/18 10:29:32;;;;;;;;;;;;;;;24.84;41.83;100063.88;5158181;27;1610;-38
2021/09/18 10:32:01;;;;;;;;;;;;;;;24.12;43.29;100069.53;5158319;27;729;-36
2021/09/18 10:34:31;;;;;;;;;;;;;;;23.71;43.52;100066.09;5157897;27;1158;-39
2021/09/18 10:36:59;;;;;;;;;;;;;;;23.41;44.25;100065.91;5156973;27;1893;-41
2021/09/18 10:39:25;;;;;;;;;;;;;;;23.31;44.53;100062.56;5139410;27;858;-42
2021/09/18 10:41:54;;;;;;;;;;;;;;;23.54;43.85;100070.72;5138918;27;834;-41
2021/09/18 10:44:21;;;;;;;;;;;;;;;23.66;44.09;100068.47;5157923;27;736;-41
2021/09/18 10:46:52;;;;;;;;;;;;;;;23.77;44.17;100063.72;5157817;27;767;-41
2021/09/18 10:49:30;;;;;;;;;;;;;;;23.45;44.22;100058.34;5157289;27;1250;-41
2021/09/18 10:51:55;;;;;;;;;;;;;;;24.32;42.83;100059.16;5157175;27;961;-41
2021/09/18 10:54:20;;;;;;;;;;;;;;;24.28;42.79;100047.09;5157759;27;855;-34
2021/09/18 10:57:21;;;;;;;;;;;;;;;23.82;44.08;100051.41;5157260;27;1906;-37
2021/09/18 10:59:47;;;;;;;;;;;;;;;24.62;42.87;100047.66;5082307;28;1242;-36
2021/09/18 11:02:32;;;;;;;;;;;;;;;24.46;43.20;100051.31;5144011;27;1167;-36
2021/09/18 11:04:57;;;;;;;;;;;;;;;25.02;41.79;100058.19;5156911;27;800;-39
2021/09/18 11:07:40;;;;;;;;;;;;;;;24.21;43.62;100049.69;5156585;27;988;-42
2021/09/18 11:10:08;;;;;;;;;;;;;;;24.28;42.97;100048.94;5156503;27;703;-41
2021/09/18 11:12:34;;;;;;;;;;;;;;;24.09;44.00;100035.78;5156960;27;827;-40
2021/09/18 11:15:03;;;;;;;;;;;;;;;24.96;42.32;100053.53;5157142;27;755;-40
2021/09/18 11:17:31;;;;;;;;;;;;;;;24.92;42.03;100060.31;5156383;27;1954;-42
2021/09/18 11:20:02;;;;;;;;;;;;;;;24.79;41.57;100063.63;5156777;27;803;-39
2021/09/18 11:22:35;;;;;;;;;;;;;;;25.34;41.13;100059.84;5137975;27;1566;-41
2021/09/18 11:25:19;;;;;;;;;;;;;;;25.31;41.06;100063.72;5156795;27;924;-36
2021/09/18 11:27:45;;;;;;;;;;;;;;;24.59;41.70;100069.50;5156695;27;779;-40
2021/09/18 11:30:10;;;;;;;;;;;;;;;25.53;40.15;100047.63;5138520;27;759;-39
2021/09/18 11:32:36;;;;;;;;;;;;;;;25.10;40.46;100043.78;5156820;27;886;-41
2021/09/18 11:35:02;;;;;;;;;;;;;;;25.03;40.69;100048.25;5157140;27;817;-36
2021/09/18 11:37:28;;;;;;;;;;;;;;;23.95;42.72;100052.69;5155526;27;1971;-41
2021/09/18 11:39:55;;;;;;;;;;;;;;;23.70;43.72;100040.28;5156336;27;747;-40
2021/09/18 11:42:22;;;;;;;;;;;;;;;24.24;42.84;100045.78;5156814;27;833;-42
2021/09/18 11:44:48;;;;;;;;;;;;;;;24.31;42.43;100049.44;5157255;27;806;-41
2021/09/18 11:47:20;;;;;;;;;;;;;;;24.08;42.77;100046.72;5155719;27;779;-38
2021/09/18 11:49:45;;;;;;;;;;;;;;;25.04;40.90;100044.53;5156440;27;1267;-37
2021/09/18 11:52:10;;;;;;;;;;;;;;;25.29;41.21;100050.44;5149865;27;972;-41
2021/09/18 11:54:35;;;;;;;;;;;;;;;24.14;42.50;100062.13;5156657;27;826;-41
2021/09/18 11:57:17;;;;;;;;;;;;;;;23.68;43.28;100052.19;5156766;27;1906;-39
2021/09/18 11:59:42;;;;;;;;;;;;;;;23.17;44.50;100045.38;5162792;27;762;-41
2021/09/18 12:02:08;;;;;;;;;;;;;;;23.47;44.18;100040.22;5177285;27;795;-36
2021/09/18 12:04:51;;;;;;;;;;;;;;;23.02;45.18;100047.94;5177363;27;830;-41
2021/09/18 12:07:17;;;;;;;;;;;;;;;22.86;45.22;100037.06;5164756;27;993;-40
2021/09/18 12:09:42;;;;;;;;;;;;;;;23.24;45.21;100031.06;5156329;27;759;-36
2021/09/18 12:12:08;;;;;;;;;;;;;;;23.64;43.81;100045.50;5156446;27;870;-40
2021/09/18 12:14:33;;;;;;;;;;;;;;;23.39;44.29;100050.97;5156151;27;862;-38
2021/09/18 12:17:15;;;;;;;;;;;;;;;23.35;44.21;100039.75;5156394;27;1897;-32
2021/09/18 12:19:40;;;;;;;;;;;;;;;23.02;44.51;100035.34;5156372;27;807;-37
2021/09/18 12:22:06;;;;;;;;;;;;;;;22.55;45.49;100032.41;5137246;27;1811;-37
2021/09/18 12:24:32;;;;;;;;;;;;;;;23.00;45.03;100040.06;5156347;27;874;-37
2021/09/18 12:26:57;;;;;;;;;;;;;;;22.90;44.94;100026.84;5160007;27;758;-41
2021/09/18 12:29:22;;;;;;;;;;;;;;;23.18;44.41;100028.25;5159589;27;877;-34
2021/09/18 12:31:48;;;;;;;;;;;;;;;23.41;44.36;100020.28;5159536;27;847;-35
2021/09/18 12:34:14;;;;;;;;;;;;;;;23.45;45.01;100023.47;5160465;27;787;-36
2021/09/18 12:36:39;;;;;;;;;;;;;;;24.14;43.55;100013.75;5159558;27;985;-41
2021/09/18 12:39:06;;;;;;;;;;;;;;;24.17;43.64;100021.47;5159354;27;1921;-40
2021/09/18 12:41:32;;;;;;;;;;;;;;;23.88;43.47;100023.03;5159175;27;1366;-38
2021/09/18 12:44:01;;;;;;;;;;;;;;;24.62;42.09;100020.75;5159985;27;748;-39
2021/09/18 12:46:26;;;;;;;;;;;;;;;24.06;43.06;100030.78;5159748;27;803;-36
2021/09/18 12:48:58;;;;;;;;;;;;;;;23.76;44.07;100029.81;5159650;27;1243;-37
2021/09/18 12:51:24;;;;;;;;;;;;;;;23.10;44.90;100018.38;5154163;27;957;-37